Time;durP1;ratioP1;P1;durP2;ratioP2;P2;SDS_P1;SDS_P2;PMS_P1;PMS_P2;Temp;Humidity;BMP_temperature;BMP_pressure;BME280_temperature;BME280_humidity;BME280_pressure;Samples;Min_cycle;Max_cycle;Signal;HPM_P1;HPM_P2
2022/11/17 00:01:47;;;;;;;8.80;3.55;;;;;;;9.45;100.00;98591.56;5073222;28;20093;-70
2022/11/17 00:04:12;;;;;;;9.80;3.65;;;;;;;9.45;100.00;98586.16;5077074;28;20058;-72
2022/11/17 00:06:38;;;;;;;9.50;3.80;;;;;;;9.44;100.00;98571.88;5094950;28;20067;-70
2022/11/17 00:09:03;;;;;;;11.23;3.90;;;;;;;9.47;100.00;98568.63;5094223;28;20444;-72
2022/11/17 00:14:31;;;;;;;7.75;3.60;;;;;;;9.45;100.00;98562.69;5092840;28;20040;-71
2022/11/17 00:14:32;;;;;;;9.43;3.70;;;;;;;9.47;100.00;98559.72;5078487;28;20040;-70
2022/11/17 00:17:08;;;;;;;6.70;3.47;;;;;;;9.46;100.00;98574.28;5076609;28;20031;-71
2022/11/17 00:22:18;;;;;;;6.38;3.60;;;;;;;9.49;100.00;98552.94;5093693;28;20063;-71
2022/11/17 00:24:44;;;;;;;6.63;3.50;;;;;;;9.49;100.00;98550.25;5094562;28;20028;-70
2022/11/17 00:27:09;;;;;;;8.75;3.90;;;;;;;9.51;100.00;98525.69;5088286;28;20029;-70
2022/11/17 00:29:34;;;;;;;7.32;3.30;;;;;;;9.55;100.00;98532.94;5056494;28;20431;-71
2022/11/17 00:34:44;;;;;;;6.18;3.30;;;;;;;9.53;100.00;98512.72;5094273;28;20046;-71
2022/11/17 00:37:11;;;;;;;6.82;3.60;;;;;;;9.52;100.00;98513.81;5094809;28;20114;-71
2022/11/17 00:39:36;;;;;;;9.52;3.40;;;;;;;9.52;100.00;98511.09;5094543;28;20034;-72
2022/11/17 00:42:02;;;;;;;9.95;3.35;;;;;;;9.52;100.00;98489.50;5069257;28;20524;-71
2022/11/17 00:44:28;;;;;;;8.00;3.33;;;;;;;9.49;100.00;98504.34;5082128;28;20039;-70
2022/11/17 00:46:53;;;;;;;7.88;2.95;;;;;;;9.51;100.00;98506.78;5076042;28;20059;-72
2022/11/17 00:49:20;;;;;;;6.28;2.95;;;;;;;9.52;100.00;98503.00;5076330;28;20078;-70
2022/11/17 00:51:46;;;;;;;7.22;3.13;;;;;;;9.51;100.00;98480.59;5092454;28;20032;-71
2022/11/17 00:54:12;;;;;;;5.75;2.83;;;;;;;9.54;100.00;98481.94;5075725;28;20036;-71
2022/11/17 00:56:37;;;;;;;7.15;3.00;;;;;;;9.54;100.00;98469.25;5074007;28;20036;-72
2022/11/17 00:59:03;;;;;;;5.25;2.83;;;;;;;9.53;100.00;98486.53;5073176;28;20037;-70
2022/11/17 01:01:28;;;;;;;7.35;3.13;;;;;;;9.54;100.00;98484.63;5076678;28;20025;-71
2022/11/17 01:04:01;;;;;;;6.75;3.30;;;;;;;9.53;100.00;98462.22;5072523;28;20033;-70
2022/11/17 01:06:29;;;;;;;6.82;3.10;;;;;;;9.54;100.00;98468.44;5073585;28;20530;-72
2022/11/17 01:08:54;;;;;;;7.50;2.72;;;;;;;9.54;100.00;98454.94;5073169;28;20467;-70
2022/11/17 01:11:19;;;;;;;6.10;2.70;;;;;;;9.54;100.00;98453.06;5082202;28;20039;-70
2022/11/17 01:13:46;;;;;;;4.78;2.83;;;;;;;9.56;100.00;98447.38;5093347;28;20054;-72
2022/11/17 01:16:17;;;;;;;4.00;2.50;;;;;;;9.54;100.00;98439.56;5089038;28;20032;-71
2022/11/17 01:18:44;;;;;;;6.87;2.60;;;;;;;9.58;100.00;98429.00;5073357;28;20058;-70
2022/11/17 01:21:12;;;;;;;3.40;2.42;;;;;;;9.59;100.00;98425.22;5080364;28;20082;-71
2022/11/17 01:23:39;;;;;;;5.40;2.30;;;;;;;9.61;100.00;98447.34;5093746;28;20039;-70
2022/11/17 01:26:11;;;;;;;3.80;1.80;;;;;;;9.66;100.00;98439.22;5093471;28;20028;-71
2022/11/17 01:28:37;;;;;;;;;;;;;;;9.72;100.00;98437.28;5075865;28;20598;-71
2022/11/17 01:31:27;;;;;;;3.45;1.90;;;;;;;9.73;100.00;98431.59;5090123;28;20491;-72
2022/11/17 01:33:53;;;;;;;5.38;2.25;;;;;;;9.72;100.00;98440.81;5080795;28;20044;-70
2022/11/17 01:36:28;;;;;;;3.67;1.83;;;;;;;9.73;100.00;98426.22;5093462;28;20035;-70
2022/11/17 01:38:54;;;;;;;3.45;1.90;;;;;;;9.74;100.00;98427.03;5093327;28;20031;-71
2022/11/17 01:41:22;;;;;;;4.60;2.08;;;;;;;9.73;100.00;98396.50;5083237;28;20039;-71
2022/11/17 01:43:58;;;;;;;7.47;2.05;;;;;;;9.76;100.00;98400.53;5073070;28;20040;-71
2022/11/17 01:46:34;;;;;;;5.70;2.05;;;;;;;9.80;100.00;98414.28;5063142;28;20032;-70
2022/11/17 01:49:09;;;;;;;3.58;1.88;;;;;;;9.83;100.00;98424.53;5092946;28;20036;-70
2022/11/17 01:51:38;;;;;;;4.20;1.50;;;;;;;9.84;100.00;98423.44;5091584;28;20154;-70
2022/11/17 01:54:05;;;;;;;2.90;1.90;;;;;;;9.85;100.00;98423.16;5092907;28;20028;-71
2022/11/17 01:56:37;;;;;;;4.03;1.90;;;;;;;9.90;100.00;98428.56;5093029;28;20094;-70
2022/11/17 01:59:13;;;;;;;3.40;1.88;;;;;;;9.89;100.00;98424.22;5074036;28;20480;-70
2022/11/17 02:01:54;;;;;;;6.00;2.08;;;;;;;9.91;100.00;98423.94;5075126;28;20055;-71
2022/11/17 02:04:32;;;;;;;5.47;2.30;;;;;;;9.90;100.00;98396.16;5090105;28;20519;-70
2022/11/17 02:07:05;;;;;;;4.22;2.28;;;;;;;9.89;100.00;98405.31;5092994;28;20028;-71
2022/11/17 02:09:33;;;;;;;4.60;2.22;;;;;;;9.90;100.00;98420.47;5091733;28;20055;-70
2022/11/17 02:11:59;;;;;;;4.82;2.10;;;;;;;9.94;100.00;98420.69;5072033;28;20500;-70
2022/11/17 02:14:25;;;;;;;3.78;1.80;;;;;;;9.96;100.00;98412.31;5072545;28;20028;-71
2022/11/17 02:16:50;;;;;;;4.20;2.10;;;;;;;9.97;100.00;98411.22;5053917;28;20064;-71
2022/11/17 02:19:16;;;;;;;3.95;2.35;;;;;;;9.97;100.00;98395.81;5072668;28;20028;-71
2022/11/17 02:22:20;;;;;;;2.80;1.90;;;;;;;9.99;100.00;98376.63;5071804;28;20028;-70
2022/11/17 02:25:00;;;;;;;1.85;1.52;;;;;;;10.00;100.00;98395.25;5092340;28;20107;-70
2022/11/17 02:27:41;;;;;;;2.80;1.52;;;;;;;9.99;100.00;98366.59;5091893;28;20043;-71
2022/11/17 02:30:10;;;;;;;3.95;1.52;;;;;;;10.00;100.00;98360.13;5072274;28;20582;-71
2022/11/17 02:32:55;;;;;;;3.88;1.60;;;;;;;10.02;100.00;98357.94;5039374;28;20041;-73
2022/11/17 02:35:38;;;;;;;2.35;1.23;;;;;;;10.03;100.00;98347.97;5072498;28;20032;-71
2022/11/17 02:38:29;;;;;;;2.50;0.88;;;;;;;10.05;100.00;98338.47;5071072;28;20360;-71
2022/11/17 02:41:12;;;;;;;3.05;1.30;;;;;;;10.05;100.00;98333.06;5071892;28;20399;-71
2022/11/17 02:44:04;;;;;;;2.80;1.00;;;;;;;10.05;100.00;98335.75;5072167;28;20569;-71
2022/11/17 02:46:40;;;;;;;2.58;1.35;;;;;;;10.05;100.00;98324.94;5070760;28;20096;-72
2022/11/17 02:49:24;;;;;;;5.93;1.50;;;;;;;10.05;100.00;98326.84;5054671;28;20037;-71
2022/11/17 02:51:53;;;;;;;1.55;1.25;;;;;;;10.03;100.00;98318.25;5034076;28;20457;-71
2022/11/17 02:54:21;;;;;;;5.78;1.77;;;;;;;10.02;100.00;98314.72;5052249;28;20031;-71
2022/11/17 02:56:46;;;;;;;2.35;1.10;;;;;;;10.01;100.00;98310.41;5051863;28;20194;-72
2022/11/17 02:59:16;;;;;;;1.35;0.85;;;;;;;10.00;100.00;98303.38;5051995;28;20207;-72
2022/11/17 03:02:01;;;;;;;1.63;1.10;;;;;;;9.99;100.00;98317.19;5049471;28;20033;-71
2022/11/17 03:04:49;;;;;;;2.95;1.00;;;;;;;10.00;100.00;98308.78;5052168;28;20495;-72
2022/11/17 03:07:39;;;;;;;2.58;1.00;;;;;;;10.00;100.00;98305.28;5044437;28;20031;-71
2022/11/17 03:10:18;;;;;;;1.88;0.88;;;;;;;9.96;100.00;98305.03;5071633;28;20065;-70
2022/11/17 03:13:08;;;;;;;1.95;0.82;;;;;;;9.97;100.00;98295.84;5051950;28;20535;-72
2022/11/17 03:15:49;;;;;;;1.05;0.80;;;;;;;9.93;100.00;98289.41;5055311;28;20025;-70
2022/11/17 03:18:23;;;;;;;1.23;0.90;;;;;;;9.91;100.00;98291.59;5056052;28;20113;-70
2022/11/17 03:20:56;;;;;;;1.67;0.77;;;;;;;9.89;100.00;98285.66;5074291;28;20111;-70
2022/11/17 03:23:31;;;;;;;2.20;0.88;;;;;;;9.86;100.00;98283.53;5075790;28;20042;-71
2022/11/17 03:25:57;;;;;;;5.45;1.02;;;;;;;9.85;100.00;98271.91;5075216;28;20098;-72
2022/11/17 03:28:28;;;;;;;0.82;0.65;;;;;;;9.87;100.00;98268.91;5055780;28;20075;-72
2022/11/17 03:30:55;;;;;;;2.60;0.90;;;;;;;9.86;100.00;98268.13;5056629;28;20044;-72
2022/11/17 03:33:23;;;;;;;3.53;1.33;;;;;;;9.85;100.00;98268.41;5075591;28;20036;-72
2022/11/17 03:35:59;;;;;;;3.72;0.90;;;;;;;9.84;100.00;98262.19;5075072;28;20024;-71
2022/11/17 03:38:28;;;;;;;1.33;0.60;;;;;;;9.83;100.00;98254.38;5075529;28;20036;-72
2022/11/17 03:40:58;;;;;;;1.38;0.75;;;;;;;9.80;100.00;98253.06;5057323;28;20036;-70
2022/11/17 03:43:26;;;;;;;4.13;0.90;;;;;;;9.80;100.00;98247.66;5075425;28;20032;-72
2022/11/17 03:45:57;;;;;;;2.58;0.90;;;;;;;9.82;100.00;98250.06;5057326;28;20478;-72
2022/11/17 03:48:43;;;;;;;7.13;1.45;;;;;;;9.85;100.00;98238.69;5092712;28;20376;-72
2022/11/17 03:51:14;;;;;;;1.15;0.70;;;;;;;9.84;100.00;98237.88;5075875;28;20483;-72
2022/11/17 03:53:41;;;;;;;2.75;1.10;;;;;;;9.86;100.00;98232.22;5075197;28;20036;-72
2022/11/17 03:56:34;;;;;;;2.25;1.00;;;;;;;9.90;100.00;98230.53;5074368;28;20086;-72
2022/11/17 03:59:01;;;;;;;1.83;0.80;;;;;;;9.90;100.00;98234.06;5095163;28;20040;-72
2022/11/17 04:01:29;;;;;;;2.28;1.58;;;;;;;9.98;100.00;98235.34;5092620;28;20122;-70
2022/11/17 04:03:54;;;;;;;2.20;1.10;;;;;;;9.98;100.00;98240.75;5095068;28;20032;-71
2022/11/17 04:06:19;;;;;;;2.13;0.90;;;;;;;10.03;100.00;98229.88;5093861;28;20035;-70
2022/11/17 04:08:45;;;;;;;2.28;0.68;;;;;;;10.04;100.00;98226.09;5075763;28;20127;-71
2022/11/17 04:16:38;;;;;;;3.25;0.63;;;;;;;10.08;100.00;98226.31;5079078;28;20047;-72
2022/11/17 04:19:03;;;;;;;2.67;0.80;;;;;;;10.09;100.00;98234.13;5076573;28;20032;-72
2022/11/17 04:21:29;;;;;;;0.68;0.63;;;;;;;10.11;100.00;98240.06;5093090;28;20020;-72
2022/11/17 04:23:54;;;;;;;3.10;0.90;;;;;;;10.10;100.00;98227.66;5094501;28;20407;-72
2022/11/17 04:29:03;;;;;;;2.97;1.13;;;;;;;10.09;100.00;98212.50;5093857;28;20132;-71
2022/11/17 04:31:30;;;;;;;4.70;1.15;;;;;;;10.11;100.00;98229.25;5094578;28;20126;-72
2022/11/17 04:33:59;;;;;;;3.53;1.23;;;;;;;10.06;100.00;98237.41;5094583;28;20025;-72
2022/11/17 04:36:31;;;;;;;3.17;1.10;;;;;;;10.04;100.00;98236.91;5090707;28;20036;-72
2022/11/17 04:38:58;;;;;;;1.98;1.15;;;;;;;10.01;100.00;98215.84;5074018;28;20479;-73
2022/11/17 04:44:11;;;;;;;3.05;1.40;;;;;;;9.95;100.00;98184.59;5074211;28;20039;-72
2022/11/17 04:46:38;;;;;;;2.95;0.95;;;;;;;9.93;100.00;98178.63;5077038;28;20031;-72
2022/11/17 04:49:05;;;;;;;1.35;1.00;;;;;;;9.90;100.00;98181.91;5073739;28;20027;-71
2022/11/17 04:51:30;;;;;;;5.03;1.20;;;;;;;9.89;100.00;98183.03;5073322;28;20040;-71
2022/11/17 04:53:56;;;;;;;2.00;1.00;;;;;;;9.89;100.00;98172.22;5056132;28;20028;-71
2022/11/17 04:56:22;;;;;;;4.93;1.40;;;;;;;9.85;100.00;98163.06;5056665;28;20090;-73
2022/11/17 04:58:49;;;;;;;5.60;1.30;;;;;;;9.83;100.00;98171.47;5094192;28;20059;-72
2022/11/17 05:01:16;;;;;;;3.85;1.48;;;;;;;9.83;100.00;98167.94;5091240;28;20141;-71
2022/11/17 05:03:44;;;;;;;3.50;1.30;;;;;;;9.81;100.00;98167.44;5093828;28;20516;-72
2022/11/17 05:06:13;;;;;;;4.10;1.90;;;;;;;9.81;100.00;98162.81;5088035;28;20025;-71
2022/11/17 05:08:39;;;;;;;7.50;1.42;;;;;;;9.83;100.00;98181.44;5073806;28;20044;-71
2022/11/17 05:13:50;;;;;;;7.55;1.88;;;;;;;9.86;100.00;98186.31;5073434;28;20028;-72
2022/11/17 05:19:01;;;;;;;6.28;1.67;;;;;;;9.88;100.00;98193.00;5073340;28;20499;-72
2022/11/17 05:21:27;;;;;;;6.32;2.20;;;;;;;9.89;100.00;98205.44;5081164;28;20028;-71
2022/11/17 05:23:55;;;;;;;9.98;2.30;;;;;;;9.96;100.00;98234.78;5079493;28;20059;-71
2022/11/17 05:26:23;;;;;;;5.07;1.52;;;;;;;9.93;100.00;98225.38;5073252;28;20479;-70
2022/11/17 05:28:49;;;;;;;7.18;1.80;;;;;;;9.92;100.00;98228.38;5093672;28;20444;-71
2022/11/17 05:31:15;;;;;;;6.25;1.90;;;;;;;9.91;100.00;98218.66;5092150;28;20124;-73
2022/11/17 05:33:40;;;;;;;7.32;1.77;;;;;;;9.91;100.00;98221.34;5093216;28;20387;-71
2022/11/17 05:36:06;;;;;;;4.57;1.73;;;;;;;9.93;100.00;98221.88;5092827;28;20028;-71
2022/11/17 05:38:31;;;;;;;7.70;2.10;;;;;;;9.95;100.00;98227.81;5078066;28;20032;-70
2022/11/17 05:40:57;;;;;;;10.15;1.75;;;;;;;9.96;100.00;98228.59;5073089;28;20079;-71
2022/11/17 05:43:22;;;;;;;8.23;2.10;;;;;;;9.95;100.00;98227.81;5072816;28;20495;-70
2022/11/17 05:45:47;;;;;;;10.30;2.15;;;;;;;9.97;100.00;98241.03;5073330;28;20573;-71
2022/11/17 05:48:13;;;;;;;8.35;2.40;;;;;;;9.97;100.00;98236.41;5054242;28;20024;-71
2022/11/17 05:50:39;;;;;;;7.72;2.13;;;;;;;9.98;100.00;98231.81;5072964;28;20460;-70
2022/11/17 05:53:04;;;;;;;8.65;1.92;;;;;;;9.96;100.00;98229.41;5072124;28;20464;-70
2022/11/17 05:55:30;;;;;;;6.65;1.73;;;;;;;9.98;100.00;98237.22;5072893;28;20040;-72
2022/11/17 05:58:00;;;;;;;11.43;2.33;;;;;;;9.97;100.00;98239.13;5085430;28;20032;-72
2022/11/17 06:00:25;;;;;;;12.98;2.50;;;;;;;9.98;100.00;98248.84;5091128;28;20032;-71
2022/11/17 06:02:54;;;;;;;9.90;2.40;;;;;;;9.98;100.00;98243.44;5092560;28;20020;-72
2022/11/17 06:05:22;;;;;;;8.07;2.25;;;;;;;9.98;100.00;98248.03;5057519;28;20036;-73
2022/11/17 06:07:48;;;;;;;8.15;2.13;;;;;;;9.96;100.00;98251.00;5088022;28;20035;-71
2022/11/17 06:10:14;;;;;;;10.15;2.50;;;;;;;9.98;100.00;98248.84;5092502;28;20059;-71
2022/11/17 06:12:39;;;;;;;9.25;1.95;;;;;;;9.98;100.00;98259.66;5092601;28;20070;-71
2022/11/17 06:15:05;;;;;;;10.90;2.58;;;;;;;9.97;100.00;98263.44;5074566;28;20024;-72
2022/11/17 06:17:35;;;;;;;12.35;2.65;;;;;;;9.95;100.00;98260.22;5090966;28;20024;-71
2022/11/17 06:20:23;;;;;;;8.55;2.10;;;;;;;9.96;100.00;98261.81;5092897;28;20043;-72
2022/11/17 06:22:49;;;;;;;10.57;2.50;;;;;;;9.94;100.00;98274.81;5090324;28;20027;-71
2022/11/17 06:25:17;;;;;;;8.77;2.17;;;;;;;9.91;100.00;98267.28;5092493;28;20054;-73
2022/11/17 06:27:43;;;;;;;9.95;2.30;;;;;;;9.90;100.00;98274.59;5063325;28;20032;-72
2022/11/17 06:30:09;;;;;;;8.88;2.15;;;;;;;9.88;100.00;98268.63;5072223;28;20094;-71
2022/11/17 06:32:36;;;;;;;7.28;2.03;;;;;;;9.88;100.00;98281.34;5064368;28;20025;-71
2022/11/17 06:35:06;;;;;;;6.82;1.95;;;;;;;9.87;100.00;98291.34;5072815;28;20112;-71
2022/11/17 06:37:31;;;;;;;8.40;1.88;;;;;;;9.85;100.00;98281.91;5088006;28;20372;-71
2022/11/17 06:39:57;;;;;;;5.93;1.50;;;;;;;9.82;100.00;98294.09;5072531;28;20090;-71
2022/11/17 06:43:02;;;;;;;8.10;1.90;;;;;;;9.80;100.00;98287.34;5072112;28;20493;-73
2022/11/17 06:45:08;;;;;;;8.90;2.13;;;;;;;9.76;100.00;98292.50;5072705;28;20421;-72
2022/11/17 06:47:33;;;;;;;8.82;1.85;;;;;;;9.73;100.00;98291.19;5091260;28;20024;-71
2022/11/17 06:49:58;;;;;;;4.88;1.40;;;;;;;9.73;100.00;98299.28;5095394;28;20054;-71
2022/11/17 06:52:24;;;;;;;5.72;1.65;;;;;;;9.70;100.00;98294.44;5090777;28;20016;-72
2022/11/17 06:54:49;;;;;;;7.20;1.60;;;;;;;9.69;100.00;98309.06;5076095;28;20028;-71
2022/11/17 06:57:15;;;;;;;7.93;2.17;;;;;;;9.67;100.00;98302.31;5094571;28;20031;-71
2022/11/17 06:59:40;;;;;;;8.95;1.92;;;;;;;9.69;100.00;98309.06;5094971;28;20024;-71
2022/11/17 07:02:05;;;;;;;6.47;1.77;;;;;;;9.67;100.00;98305.00;5093685;28;20101;-71
2022/11/17 07:04:31;;;;;;;7.65;2.10;;;;;;;9.63;100.00;98307.47;5094915;28;20031;-72
2022/11/17 07:06:56;;;;;;;7.78;2.42;;;;;;;9.62;100.00;98313.13;5093271;28;20063;-72
2022/11/17 07:09:24;;;;;;;6.32;1.63;;;;;;;9.58;100.00;98315.59;5096110;28;20078;-72
2022/11/17 07:11:49;;;;;;;4.60;1.55;;;;;;;9.56;100.00;98306.97;5095035;28;20032;-70
2022/11/17 07:14:14;;;;;;;7.90;2.17;;;;;;;9.54;100.00;98319.94;5094828;28;20167;-72
2022/11/17 07:16:41;;;;;;;7.32;1.48;;;;;;;9.54;100.00;98333.44;5093195;28;20105;-71
2022/11/17 07:19:08;;;;;;;7.22;1.58;;;;;;;9.54;100.00;98330.72;5078909;28;20036;-71
2022/11/17 07:21:34;;;;;;;4.22;1.30;;;;;;;9.52;100.00;98322.13;5076018;28;20457;-71
2022/11/17 07:23:59;;;;;;;7.65;1.95;;;;;;;9.49;100.00;98325.38;5074545;28;20028;-72
2022/11/17 07:26:24;;;;;;;8.10;1.40;;;;;;;9.51;100.00;98336.69;5084537;28;20028;-71
2022/11/17 07:28:50;;;;;;;7.38;1.60;;;;;;;9.47;100.00;98336.47;5095119;28;20063;-72
2022/11/17 07:31:15;;;;;;;8.35;1.60;;;;;;;9.48;100.00;98343.47;5095671;28;20028;-71
2022/11/17 07:33:40;;;;;;;3.45;1.20;;;;;;;9.46;100.00;98334.03;5096063;28;20024;-75
2022/11/17 07:36:08;;;;;;;3.60;1.33;;;;;;;9.43;100.00;98345.41;5093802;28;20036;-70
2022/11/17 07:38:35;;;;;;;5.97;1.40;;;;;;;9.42;100.00;98346.47;5075465;28;20028;-74
2022/11/17 07:41:01;;;;;;;8.40;1.80;;;;;;;9.43;100.00;98346.19;5075631;28;20020;-71
2022/11/17 07:43:27;;;;;;;5.80;1.70;;;;;;;9.44;100.00;98347.03;5074677;28;20043;-71
2022/11/17 07:45:52;;;;;;;5.70;1.42;;;;;;;9.44;100.00;98360.50;5075468;28;20115;-73
2022/11/17 07:48:18;;;;;;;3.92;1.33;;;;;;;9.41;100.00;98361.88;5092769;28;20035;-71
2022/11/17 07:50:43;;;;;;;6.25;1.15;;;;;;;9.41;100.00;98361.88;5077493;28;20024;-72
2022/11/17 07:53:08;;;;;;;6.45;1.80;;;;;;;9.40;100.00;98354.84;5095330;28;20077;-73
2022/11/17 07:55:33;;;;;;;5.60;0.98;;;;;;;9.38;100.00;98360.53;5096116;28;20028;-71
2022/11/17 07:58:00;;;;;;;7.22;1.50;;;;;;;9.40;100.00;98369.16;5084277;28;20449;-72
2022/11/17 08:00:28;;;;;;;3.92;1.27;;;;;;;9.38;100.00;98376.72;5092342;28;20441;-72
2022/11/17 08:02:54;;;;;;;7.03;1.38;;;;;;;9.40;100.00;98373.75;5077204;28;20030;-71
2022/11/17 08:05:20;;;;;;;4.70;1.30;;;;;;;9.40;100.00;98377.28;5094847;28;20115;-72
2022/11/17 08:07:52;;;;;;;3.63;1.25;;;;;;;9.39;100.00;98383.75;5061955;28;20112;-72
2022/11/17 08:10:17;;;;;;;3.88;1.20;;;;;;;9.39;100.00;98389.16;5074674;28;20098;-71
2022/11/17 08:12:43;;;;;;;8.23;1.70;;;;;;;9.39;100.00;98389.16;5078461;28;20463;-72
2022/11/17 08:15:08;;;;;;;4.70;1.23;;;;;;;9.40;100.00;98396.16;5095098;28;20048;-71
2022/11/17 08:17:33;;;;;;;6.15;1.45;;;;;;;9.38;100.00;98392.91;5093659;28;20031;-72
2022/11/17 08:19:58;;;;;;;4.50;1.50;;;;;;;9.36;100.00;98400.50;5094864;28;20111;-72
2022/11/17 08:22:24;;;;;;;3.80;1.20;;;;;;;9.39;100.00;98404.50;5094923;28;20028;-71
2022/11/17 08:24:49;;;;;;;4.82;1.55;;;;;;;9.37;100.00;98407.50;5094956;28;20028;-72
2022/11/17 08:27:15;;;;;;;3.70;1.25;;;;;;;9.35;100.00;98406.16;5092004;28;20036;-71
2022/11/17 08:29:40;;;;;;;3.97;1.15;;;;;;;9.34;100.00;98408.03;5095123;28;20030;-71
2022/11/17 08:32:05;;;;;;;3.78;1.10;;;;;;;9.33;100.00;98398.34;5094767;28;20032;-71
2022/11/17 08:34:31;;;;;;;4.18;1.30;;;;;;;9.32;100.00;98404.81;5094752;28;20028;-72
2022/11/17 08:36:56;;;;;;;5.25;1.23;;;;;;;9.31;100.00;98408.59;5093538;28;20463;-72
2022/11/17 08:39:21;;;;;;;4.30;1.33;;;;;;;9.30;100.00;98404.31;5094465;28;20119;-71
2022/11/17 08:41:47;;;;;;;4.85;1.30;;;;;;;9.30;100.00;98415.09;5092812;28;20028;-72
2022/11/17 08:44:12;;;;;;;6.93;1.35;;;;;;;9.30;100.00;98416.97;5056352;28;20115;-72
2022/11/17 08:46:37;;;;;;;3.38;1.40;;;;;;;9.25;100.00;98420.50;5059186;28;20111;-71
2022/11/17 08:49:02;;;;;;;3.00;0.93;;;;;;;9.24;100.00;98424.31;5094516;28;20095;-71
2022/11/17 08:51:28;;;;;;;4.38;1.42;;;;;;;9.27;100.00;98417.53;5094277;28;20024;-71
2022/11/17 08:53:54;;;;;;;3.72;1.27;;;;;;;9.23;100.00;98417.28;5093112;28;20566;-71
2022/11/17 08:56:19;;;;;;;6.38;1.30;;;;;;;9.21;100.00;98425.66;5064301;28;20039;-71
2022/11/17 08:58:47;;;;;;;4.75;1.35;;;;;;;9.22;100.00;98426.44;5074068;28;20036;-72
2022/11/17 09:01:14;;;;;;;2.80;1.00;;;;;;;9.23;100.00;98434.28;5071390;28;20048;-72
2022/11/17 09:03:45;;;;;;;4.95;1.30;;;;;;;9.24;100.00;98435.09;5073657;28;20457;-73
2022/11/17 09:06:11;;;;;;;2.58;1.23;;;;;;;9.23;100.00;98433.47;5055616;28;20053;-76
2022/11/17 09:08:37;;;;;;;2.30;1.40;;;;;;;9.23;100.00;98428.06;5073998;28;20517;-75
2022/11/17 09:11:09;;;;;;;4.25;1.13;;;;;;;9.23;100.00;98444.25;5073414;28;20025;-72
2022/11/17 09:13:34;;;;;;;;;;;;;;;9.32;100.00;98449.91;5079493;28;20110;-71
2022/11/17 09:16:01;;;;;;;6.22;1.50;;;;;;;9.23;100.00;98450.47;5082776;28;20465;-72
2022/11/17 09:18:26;;;;;;;4.47;1.20;;;;;;;9.22;100.00;98448.88;5074815;28;20484;-72
2022/11/17 09:20:52;;;;;;;4.85;1.20;;;;;;;9.23;100.00;98442.38;5092562;28;20029;-71
2022/11/17 09:23:17;;;;;;;4.47;1.20;;;;;;;9.22;100.00;98453.44;5074147;28;20051;-73
2022/11/17 09:25:42;;;;;;;5.78;1.42;;;;;;;9.19;100.00;98454.81;5082746;28;20485;-72
2022/11/17 09:28:08;;;;;;;6.78;1.40;;;;;;;9.22;100.00;98458.84;5093468;28;20387;-73
2022/11/17 09:30:33;;;;;;;4.75;1.40;;;;;;;9.21;100.00;98463.44;5092842;28;20111;-71
2022/11/17 09:32:58;;;;;;;8.18;2.22;;;;;;;9.28;100.00;98463.13;5073053;28;20479;-71
2022/11/17 09:35:24;;;;;;;5.53;1.27;;;;;;;9.30;100.00;98466.38;5059848;28;20027;-74
2022/11/17 09:37:49;;;;;;;4.97;1.20;;;;;;;9.33;100.00;98465.00;5093170;28;20060;-76
2022/11/17 09:40:18;;;;;;;4.55;1.30;;;;;;;9.35;100.00;98474.44;5092994;28;20030;-73
2022/11/17 09:42:43;;;;;;;3.17;1.13;;;;;;;9.39;100.00;98477.38;5084491;28;20111;-73
2022/11/17 09:45:19;;;;;;;5.38;1.35;;;;;;;9.39;100.00;98472.81;5072429;28;20124;-73
2022/11/17 09:48:09;;;;;;;7.30;1.63;;;;;;;9.45;100.00;98480.88;5083092;28;20532;-73
2022/11/17 09:50:39;;;;;;;3.13;1.30;;;;;;;9.49;100.00;98479.25;5090735;28;20028;-73
2022/11/17 09:53:27;;;;;;;4.23;1.20;;;;;;;9.54;100.00;98484.63;5078326;28;20032;-74
2022/11/17 09:56:00;;;;;;;3.72;1.10;;;;;;;9.54;100.00;98492.72;5072910;28;20028;-73
2022/11/17 09:58:36;;;;;;;6.35;1.40;;;;;;;9.56;100.00;98491.38;5073846;28;20499;-73
2022/11/17 10:01:02;;;;;;;7.53;1.50;;;;;;;9.59;100.00;98492.72;5052533;28;20032;-74
2022/11/17 10:03:34;;;;;;;6.68;1.23;;;;;;;9.65;100.00;98509.72;5076661;28;20478;-73
2022/11/17 10:06:03;;;;;;;5.97;1.33;;;;;;;9.65;100.00;98507.03;5080008;28;20102;-74
2022/11/17 10:08:51;;;;;;;5.10;1.20;;;;;;;9.71;100.00;98514.00;5067322;28;20031;-74
2022/11/17 10:11:32;;;;;;;2.95;1.13;;;;;;;9.73;100.00;98514.53;5083933;28;20476;-73
2022/11/17 10:14:02;;;;;;;4.68;1.25;;;;;;;9.74;100.00;98522.34;5084488;28;20032;-73
2022/11/17 10:16:29;;;;;;;8.95;1.77;;;;;;;9.78;100.00;98519.09;5078540;28;20391;-74
2022/11/17 10:18:55;;;;;;;6.15;1.60;;;;;;;9.82;100.00;98520.16;5072589;28;20466;-74
2022/11/17 10:21:21;;;;;;;5.90;1.55;;;;;;;9.89;100.00;98518.78;5072593;28;20112;-74
2022/11/17 10:23:55;;;;;;;5.03;1.45;;;;;;;9.90;100.00;98517.72;5082583;28;20055;-73
2022/11/17 10:26:20;;;;;;;6.65;1.30;;;;;;;9.96;100.00;98514.97;5092549;28;20115;-73
2022/11/17 10:28:47;;;;;;;4.00;0.93;;;;;;;10.02;100.00;98536.25;5091039;28;20060;-74
2022/11/17 10:31:15;;;;;;;4.68;1.30;;;;;;;10.05;100.00;98524.09;5087879;28;20028;-72
2022/11/17 10:33:44;;;;;;;4.35;1.08;;;;;;;10.10;100.00;98541.09;5090926;28;20131;-74
2022/11/17 10:36:24;;;;;;;4.68;1.35;;;;;;;10.17;100.00;98542.69;5074609;28;20081;-73
2022/11/17 10:38:53;;;;;;;3.63;1.10;;;;;;;10.20;100.00;98539.44;5092678;28;20464;-73
2022/11/17 10:41:37;;;;;;;4.18;1.15;;;;;;;10.24;100.00;98548.59;5091882;28;20372;-74
2022/11/17 10:44:21;;;;;;;3.05;1.20;;;;;;;10.28;100.00;98549.63;5087221;28;20069;-73
2022/11/17 10:46:55;;;;;;;4.88;1.30;;;;;;;10.31;100.00;98550.97;5075384;28;20036;-72
2022/11/17 10:49:40;;;;;;;3.60;1.20;;;;;;;10.32;100.00;98561.50;5073755;28;20020;-73
2022/11/17 10:52:17;;;;;;;7.00;1.70;;;;;;;10.28;100.00;98555.88;5062949;28;20041;-72
2022/11/17 10:54:44;;;;;;;3.35;1.20;;;;;;;10.27;100.00;98550.75;5062031;28;20149;-74
2022/11/17 10:57:21;;;;;;;4.22;1.30;;;;;;;10.29;100.00;98562.06;5067302;28;20115;-75
2022/11/17 10:59:53;;;;;;;4.32;1.08;;;;;;;10.29;100.00;98559.38;5075916;28;20032;-74
2022/11/17 11:02:27;;;;;;;5.47;1.30;;;;;;;10.27;100.00;98556.94;5083715;28;20177;-77
2022/11/17 11:05:05;;;;;;;3.85;1.20;;;;;;;10.28;100.00;98557.75;5055058;28;20391;-74
2022/11/17 11:07:30;;;;;;;4.15;1.20;;;;;;;10.25;100.00;98574.53;5073039;28;20154;-74
2022/11/17 11:10:05;;;;;;;5.50;1.42;;;;;;;10.22;100.00;98566.97;5075750;28;20115;-74
2022/11/17 11:12:55;;;;;;;3.88;1.10;;;;;;;10.20;100.00;98564.53;5090324;28;20119;-74
2022/11/17 11:15:23;;;;;;;6.78;1.23;;;;;;;10.18;100.00;98568.63;5078967;28;20097;-74
2022/11/17 11:17:49;;;;;;;4.90;1.13;;;;;;;10.18;100.00;98563.22;5077004;28;20024;-74
2022/11/17 11:20:17;;;;;;;5.13;1.38;;;;;;;10.17;100.00;98567.00;5074718;28;20071;-74
2022/11/17 11:22:55;;;;;;;6.05;1.40;;;;;;;10.16;100.00;98579.72;5073562;28;20032;-73
2022/11/17 11:25:33;;;;;;;5.32;1.30;;;;;;;10.19;100.00;98583.75;5072149;28;20058;-74
2022/11/17 11:28:16;;;;;;;6.78;1.30;;;;;;;10.23;100.00;98577.50;5075768;28;20543;-73
2022/11/17 11:31:03;;;;;;;4.35;1.20;;;;;;;10.24;100.00;98578.34;5077549;28;20032;-73
2022/11/17 11:33:40;;;;;;;7.32;1.67;;;;;;;10.25;100.00;98588.88;5055390;28;20040;-73
2022/11/17 11:36:34;;;;;;;5.10;1.67;;;;;;;10.27;100.00;98591.28;5076408;28;20032;-76
2022/11/17 11:39:35;;;;;;;3.97;1.67;;;;;;;10.25;100.00;98599.69;5075453;28;20032;-75
2022/11/17 11:42:35;;;;;;;3.97;1.17;;;;;;;10.24;100.00;98603.47;5057589;28;20020;-73
2022/11/17 11:45:37;;;;;;;6.32;1.63;;;;;;;10.25;100.00;98599.69;5076638;28;20456;-75
2022/11/17 11:48:26;;;;;;;6.88;1.40;;;;;;;10.26;100.00;98605.88;5083273;28;20055;-73
2022/11/17 11:50:56;;;;;;;4.22;1.10;;;;;;;10.25;100.00;98606.97;5083316;28;20028;-74
2022/11/17 11:53:41;;;;;;;8.18;1.50;;;;;;;10.26;100.00;98609.38;5075507;28;20028;-74
2022/11/17 11:56:20;;;;;;;3.72;1.23;;;;;;;10.27;100.00;98604.81;5075548;28;20496;-76
2022/11/17 11:59:12;;;;;;;2.22;1.08;;;;;;;10.30;100.00;98606.94;5056601;28;20050;-75
2022/11/17 12:01:51;;;;;;;4.15;1.00;;;;;;;10.29;100.00;98610.72;5092921;28;20093;-74
2022/11/17 12:04:29;;;;;;;3.53;1.10;;;;;;;10.32;100.00;98610.19;5095556;28;20028;-78
2022/11/17 12:07:04;;;;;;;4.35;1.10;;;;;;;10.30;100.00;98606.94;5095724;28;20063;-72
2022/11/17 12:09:40;;;;;;;6.80;1.38;;;;;;;10.30;100.00;98615.06;5093260;28;20028;-72